sensor_id;sensor_type;location;lat;lon;timestamp;P1;durP1;ratioP1;P2;durP2;ratioP2
35644;SDS011;21764;52.042;6.830;2023-08-21T00:01:01;11.30;;;2.50;;
35644;SDS011;21764;52.042;6.830;2023-08-21T00:06:02;8.63;;;2.65;;
35644;SDS011;21764;52.042;6.830;2023-08-21T00:11:03;7.93;;;2.47;;
35644;SDS011;21764;52.042;6.830;2023-08-21T00:16:03;9.63;;;2.97;;
35644;SDS011;21764;52.042;6.830;2023-08-21T00:21:04;8.27;;;2.55;;
35644;SDS011;21764;52.042;6.830;2023-08-21T00:26:05;9.07;;;2.53;;
35644;SDS011;21764;52.042;6.830;2023-08-21T00:31:06;9.73;;;2.88;;
35644;SDS011;21764;52.042;6.830;2023-08-21T00:36:06;5.82;;;2.47;;
35644;SDS011;21764;52.042;6.830;2023-08-21T00:41:07;11.55;;;3.17;;
35644;SDS011;21764;52.042;6.830;2023-08-21T00:46:08;7.28;;;3.22;;
35644;SDS011;21764;52.042;6.830;2023-08-21T00:51:08;8.32;;;3.13;;
35644;SDS011;21764;52.042;6.830;2023-08-21T00:56:11;9.23;;;2.97;;
35644;SDS011;21764;52.042;6.830;2023-08-21T01:01:12;7.38;;;2.80;;
35644;SDS011;21764;52.042;6.830;2023-08-21T01:06:17;9.75;;;3.03;;
35644;SDS011;21764;52.042;6.830;2023-08-21T01:16:24;8.63;;;3.50;;
35644;SDS011;21764;52.042;6.830;2023-08-21T01:21:26;12.57;;;3.67;;
35644;SDS011;21764;52.042;6.830;2023-08-21T01:26:27;11.20;;;2.97;;
35644;SDS011;21764;52.042;6.830;2023-08-21T01:31:30;9.40;;;3.40;;
35644;SDS011;21764;52.042;6.830;2023-08-21T01:36:34;8.05;;;3.22;;
35644;SDS011;21764;52.042;6.830;2023-08-21T01:41:36;11.10;;;3.38;;
35644;SDS011;21764;52.042;6.830;2023-08-21T01:46:36;11.27;;;3.42;;
35644;SDS011;21764;52.042;6.830;2023-08-21T01:51:37;7.85;;;2.63;;
35644;SDS011;21764;52.042;6.830;2023-08-21T01:56:38;11.07;;;3.67;;
35644;SDS011;21764;52.042;6.830;2023-08-21T02:01:38;11.35;;;3.28;;
35644;SDS011;21764;52.042;6.830;2023-08-21T02:06:39;16.08;;;3.58;;
35644;SDS011;21764;52.042;6.830;2023-08-21T02:11:40;10.55;;;3.33;;
35644;SDS011;21764;52.042;6.830;2023-08-21T02:16:40;9.27;;;3.10;;
35644;SDS011;21764;52.042;6.830;2023-08-21T02:21:41;11.63;;;4.05;;
35644;SDS011;21764;52.042;6.830;2023-08-21T02:26:42;10.55;;;3.00;;
35644;SDS011;21764;52.042;6.830;2023-08-21T02:31:45;12.70;;;3.25;;
35644;SDS011;21764;52.042;6.830;2023-08-21T02:36:45;10.82;;;2.88;;
35644;SDS011;21764;52.042;6.830;2023-08-21T02:41:46;13.57;;;3.00;;
35644;SDS011;21764;52.042;6.830;2023-08-21T02:46:47;11.93;;;3.30;;
35644;SDS011;21764;52.042;6.830;2023-08-21T02:51:47;6.63;;;2.97;;
35644;SDS011;21764;52.042;6.830;2023-08-21T02:56:48;10.27;;;3.22;;
35644;SDS011;21764;52.042;6.830;2023-08-21T03:01:49;9.60;;;3.40;;
35644;SDS011;21764;52.042;6.830;2023-08-21T03:06:49;7.53;;;3.17;;
35644;SDS011;21764;52.042;6.830;2023-08-21T03:11:50;8.05;;;3.40;;
35644;SDS011;21764;52.042;6.830;2023-08-21T03:16:51;11.40;;;3.55;;
35644;SDS011;21764;52.042;6.830;2023-08-21T03:21:51;7.22;;;3.20;;
35644;SDS011;21764;52.042;6.830;2023-08-21T03:26:52;9.30;;;3.42;;
35644;SDS011;21764;52.042;6.830;2023-08-21T03:31:53;8.40;;;3.15;;
35644;SDS011;21764;52.042;6.830;2023-08-21T03:36:56;12.27;;;3.38;;
35644;SDS011;21764;52.042;6.830;2023-08-21T03:41:56;12.15;;;3.80;;
35644;SDS011;21764;52.042;6.830;2023-08-21T03:46:57;13.07;;;4.03;;
35644;SDS011;21764;52.042;6.830;2023-08-21T03:51:58;10.40;;;3.28;;
35644;SDS011;21764;52.042;6.830;2023-08-21T03:56:58;8.07;;;2.65;;
35644;SDS011;21764;52.042;6.830;2023-08-21T04:01:59;14.30;;;3.75;;
35644;SDS011;21764;52.042;6.830;2023-08-21T04:07:00;8.57;;;3.00;;
35644;SDS011;21764;52.042;6.830;2023-08-21T04:12:00;11.88;;;3.67;;
35644;SDS011;21764;52.042;6.830;2023-08-21T04:17:01;10.23;;;3.03;;
35644;SDS011;21764;52.042;6.830;2023-08-21T04:22:02;11.32;;;3.47;;
35644;SDS011;21764;52.042;6.830;2023-08-21T04:27:03;9.82;;;3.33;;
35644;SDS011;21764;52.042;6.830;2023-08-21T04:32:03;14.55;;;3.63;;
35644;SDS011;21764;52.042;6.830;2023-08-21T04:37:04;9.55;;;3.22;;
35644;SDS011;21764;52.042;6.830;2023-08-21T04:42:05;13.68;;;3.75;;
35644;SDS011;21764;52.042;6.830;2023-08-21T04:47:22;13.90;;;3.50;;
35644;SDS011;21764;52.042;6.830;2023-08-21T04:52:26;12.38;;;3.67;;
35644;SDS011;21764;52.042;6.830;2023-08-21T04:57:26;9.25;;;3.40;;
35644;SDS011;21764;52.042;6.830;2023-08-21T05:02:27;10.77;;;3.80;;
35644;SDS011;21764;52.042;6.830;2023-08-21T05:07:28;12.23;;;4.13;;
35644;SDS011;21764;52.042;6.830;2023-08-21T05:12:28;10.63;;;4.20;;
35644;SDS011;21764;52.042;6.830;2023-08-21T05:17:29;18.25;;;4.07;;
35644;SDS011;21764;52.042;6.830;2023-08-21T05:22:30;10.10;;;3.58;;
35644;SDS011;21764;52.042;6.830;2023-08-21T05:27:31;11.05;;;2.92;;
35644;SDS011;21764;52.042;6.830;2023-08-21T05:32:32;8.23;;;3.20;;
35644;SDS011;21764;52.042;6.830;2023-08-21T05:37:32;13.13;;;3.15;;
35644;SDS011;21764;52.042;6.830;2023-08-21T05:42:33;12.07;;;2.97;;
35644;SDS011;21764;52.042;6.830;2023-08-21T05:47:34;12.00;;;2.97;;
35644;SDS011;21764;52.042;6.830;2023-08-21T05:52:34;13.85;;;3.53;;
35644;SDS011;21764;52.042;6.830;2023-08-21T05:57:35;11.60;;;3.95;;
35644;SDS011;21764;52.042;6.830;2023-08-21T06:02:36;12.90;;;3.53;;
35644;SDS011;21764;52.042;6.830;2023-08-21T06:07:36;10.88;;;3.50;;
35644;SDS011;21764;52.042;6.830;2023-08-21T06:12:40;12.65;;;3.40;;
35644;SDS011;21764;52.042;6.830;2023-08-21T06:17:41;12.60;;;3.60;;
35644;SDS011;21764;52.042;6.830;2023-08-21T06:22:42;8.88;;;3.05;;
35644;SDS011;21764;52.042;6.830;2023-08-21T06:27:43;11.27;;;3.38;;
35644;SDS011;21764;52.042;6.830;2023-08-21T06:32:43;11.05;;;3.00;;
35644;SDS011;21764;52.042;6.830;2023-08-21T06:37:44;12.60;;;3.00;;
35644;SDS011;21764;52.042;6.830;2023-08-21T06:42:45;11.52;;;2.63;;
35644;SDS011;21764;52.042;6.830;2023-08-21T06:47:45;12.30;;;3.28;;
35644;SDS011;21764;52.042;6.830;2023-08-21T06:52:47;8.65;;;2.28;;
35644;SDS011;21764;52.042;6.830;2023-08-21T06:57:48;8.88;;;2.50;;
35644;SDS011;21764;52.042;6.830;2023-08-21T07:02:49;8.48;;;2.20;;
35644;SDS011;21764;52.042;6.830;2023-08-21T07:07:49;11.38;;;2.65;;
35644;SDS011;21764;52.042;6.830;2023-08-21T07:12:50;10.13;;;2.50;;
35644;SDS011;21764;52.042;6.830;2023-08-21T07:17:51;11.05;;;3.00;;
35644;SDS011;21764;52.042;6.830;2023-08-21T07:22:51;15.52;;;2.65;;
35644;SDS011;21764;52.042;6.830;2023-08-21T07:27:52;11.77;;;3.40;;
35644;SDS011;21764;52.042;6.830;2023-08-21T07:32:53;17.67;;;3.58;;
35644;SDS011;21764;52.042;6.830;2023-08-21T07:37:54;9.18;;;2.85;;
35644;SDS011;21764;52.042;6.830;2023-08-21T07:42:54;12.95;;;3.15;;
35644;SDS011;21764;52.042;6.830;2023-08-21T07:47:55;13.82;;;3.75;;
35644;SDS011;21764;52.042;6.830;2023-08-21T07:52:56;13.48;;;3.58;;
35644;SDS011;21764;52.042;6.830;2023-08-21T07:57:56;15.82;;;3.42;;
35644;SDS011;21764;52.042;6.830;2023-08-21T08:02:57;12.77;;;2.83;;
35644;SDS011;21764;52.042;6.830;2023-08-21T08:07:57;13.50;;;3.35;;
35644;SDS011;21764;52.042;6.830;2023-08-21T08:12:58;10.52;;;2.85;;
35644;SDS011;21764;52.042;6.830;2023-08-21T08:17:59;8.65;;;2.08;;
35644;SDS011;21764;52.042;6.830;2023-08-21T08:22:59;11.27;;;2.80;;
35644;SDS011;21764;52.042;6.830;2023-08-21T08:28:00;17.95;;;3.05;;
35644;SDS011;21764;52.042;6.830;2023-08-21T08:33:01;10.68;;;2.60;;
35644;SDS011;21764;52.042;6.830;2023-08-21T08:38:02;11.82;;;2.15;;
35644;SDS011;21764;52.042;6.830;2023-08-21T08:43:03;13.02;;;2.63;;
35644;SDS011;21764;52.042;6.830;2023-08-21T08:48:05;8.43;;;2.10;;
35644;SDS011;21764;52.042;6.830;2023-08-21T08:53:07;14.73;;;3.15;;
35644;SDS011;21764;52.042;6.830;2023-08-21T08:58:08;10.25;;;2.15;;
35644;SDS011;21764;52.042;6.830;2023-08-21T09:03:09;11.55;;;2.08;;
35644;SDS011;21764;52.042;6.830;2023-08-21T09:08:11;10.77;;;2.40;;
35644;SDS011;21764;52.042;6.830;2023-08-21T09:13:16;8.93;;;2.33;;
35644;SDS011;21764;52.042;6.830;2023-08-21T09:18:18;7.95;;;3.05;;
35644;SDS011;21764;52.042;6.830;2023-08-21T09:23:19;12.52;;;2.28;;
35644;SDS011;21764;52.042;6.830;2023-08-21T09:28:20;8.80;;;2.42;;
35644;SDS011;21764;52.042;6.830;2023-08-21T09:33:21;11.57;;;2.05;;
35644;SDS011;21764;52.042;6.830;2023-08-21T09:38:25;10.38;;;2.15;;
35644;SDS011;21764;52.042;6.830;2023-08-21T09:43:26;7.47;;;2.15;;
35644;SDS011;21764;52.042;6.830;2023-08-21T09:48:27;5.13;;;1.52;;
35644;SDS011;21764;52.042;6.830;2023-08-21T09:53:28;6.93;;;1.95;;
35644;SDS011;21764;52.042;6.830;2023-08-21T09:58:29;9.52;;;2.00;;
35644;SDS011;21764;52.042;6.830;2023-08-21T10:03:30;6.68;;;1.70;;
35644;SDS011;21764;52.042;6.830;2023-08-21T10:08:33;5.30;;;1.73;;
35644;SDS011;21764;52.042;6.830;2023-08-21T10:13:39;10.13;;;1.67;;
35644;SDS011;21764;52.042;6.830;2023-08-21T10:18:43;7.57;;;1.73;;
35644;SDS011;21764;52.042;6.830;2023-08-21T10:23:46;7.15;;;1.88;;
35644;SDS011;21764;52.042;6.830;2023-08-21T10:28:52;13.10;;;2.42;;
35644;SDS011;21764;52.042;6.830;2023-08-21T10:33:54;6.13;;;1.88;;
35644;SDS011;21764;52.042;6.830;2023-08-21T10:38:59;6.65;;;1.65;;
35644;SDS011;21764;52.042;6.830;2023-08-21T10:44:00;10.30;;;1.98;;
35644;SDS011;21764;52.042;6.830;2023-08-21T10:49:02;8.23;;;1.60;;
35644;SDS011;21764;52.042;6.830;2023-08-21T10:54:10;10.43;;;2.00;;
35644;SDS011;21764;52.042;6.830;2023-08-21T10:59:11;6.70;;;1.90;;
35644;SDS011;21764;52.042;6.830;2023-08-21T11:04:12;7.18;;;1.58;;
35644;SDS011;21764;52.042;6.830;2023-08-21T11:09:13;6.07;;;1.60;;
35644;SDS011;21764;52.042;6.830;2023-08-21T11:14:13;11.23;;;2.05;;
35644;SDS011;21764;52.042;6.830;2023-08-21T11:19:14;6.90;;;1.67;;
35644;SDS011;21764;52.042;6.830;2023-08-21T11:24:15;7.55;;;1.80;;
35644;SDS011;21764;52.042;6.830;2023-08-21T11:29:16;6.55;;;1.80;;
35644;SDS011;21764;52.042;6.830;2023-08-21T11:34:21;11.25;;;1.60;;
35644;SDS011;21764;52.042;6.830;2023-08-21T11:39:21;7.25;;;1.50;;
35644;SDS011;21764;52.042;6.830;2023-08-21T11:44:23;7.43;;;1.50;;
35644;SDS011;21764;52.042;6.830;2023-08-21T11:49:23;11.32;;;1.88;;
35644;SDS011;21764;52.042;6.830;2023-08-21T11:54:24;7.32;;;1.88;;
35644;SDS011;21764;52.042;6.830;2023-08-21T11:59:25;8.68;;;1.70;;
35644;SDS011;21764;52.042;6.830;2023-08-21T12:04:26;6.75;;;1.50;;
35644;SDS011;21764;52.042;6.830;2023-08-21T12:09:27;7.03;;;1.65;;
35644;SDS011;21764;52.042;6.830;2023-08-21T12:14:28;7.93;;;1.70;;
35644;SDS011;21764;52.042;6.830;2023-08-21T12:19:29;7.00;;;1.50;;
35644;SDS011;21764;52.042;6.830;2023-08-21T12:24:30;4.13;;;1.52;;
35644;SDS011;21764;52.042;6.830;2023-08-21T12:29:31;8.52;;;1.65;;
35644;SDS011;21764;52.042;6.830;2023-08-21T12:34:32;5.78;;;1.35;;
35644;SDS011;21764;52.042;6.830;2023-08-21T12:39:32;7.13;;;1.77;;
35644;SDS011;21764;52.042;6.830;2023-08-21T12:44:33;6.50;;;1.35;;
35644;SDS011;21764;52.042;6.830;2023-08-21T12:49:34;6.60;;;1.58;;
35644;SDS011;21764;52.042;6.830;2023-08-21T12:54:35;6.32;;;1.63;;
35644;SDS011;21764;52.042;6.830;2023-08-21T12:59:36;6.63;;;1.70;;
35644;SDS011;21764;52.042;6.830;2023-08-21T13:04:36;9.98;;;1.63;;
35644;SDS011;21764;52.042;6.830;2023-08-21T13:09:37;6.28;;;1.50;;
35644;SDS011;21764;52.042;6.830;2023-08-21T13:14:38;8.65;;;2.03;;
35644;SDS011;21764;52.042;6.830;2023-08-21T13:19:39;14.02;;;2.08;;
35644;SDS011;21764;52.042;6.830;2023-08-21T13:24:40;7.72;;;1.67;;
35644;SDS011;21764;52.042;6.830;2023-08-21T13:29:41;8.18;;;1.60;;
35644;SDS011;21764;52.042;6.830;2023-08-21T13:34:41;6.70;;;1.88;;
35644;SDS011;21764;52.042;6.830;2023-08-21T13:39:42;7.95;;;1.70;;
35644;SDS011;21764;52.042;6.830;2023-08-21T13:44:43;7.38;;;1.65;;
35644;SDS011;21764;52.042;6.830;2023-08-21T13:49:44;8.32;;;2.05;;
35644;SDS011;21764;52.042;6.830;2023-08-21T13:54:45;7.20;;;1.67;;
35644;SDS011;21764;52.042;6.830;2023-08-21T13:59:46;9.23;;;1.80;;
35644;SDS011;21764;52.042;6.830;2023-08-21T14:04:46;6.82;;;1.60;;
35644;SDS011;21764;52.042;6.830;2023-08-21T14:09:47;9.60;;;1.83;;
35644;SDS011;21764;52.042;6.830;2023-08-21T14:14:48;8.65;;;1.80;;
35644;SDS011;21764;52.042;6.830;2023-08-21T14:19:49;8.30;;;2.20;;
35644;SDS011;21764;52.042;6.830;2023-08-21T14:24:50;9.85;;;1.90;;
35644;SDS011;21764;52.042;6.830;2023-08-21T14:29:50;9.52;;;1.92;;
35644;SDS011;21764;52.042;6.830;2023-08-21T14:34:51;10.15;;;2.22;;
35644;SDS011;21764;52.042;6.830;2023-08-21T14:39:55;10.93;;;2.30;;
35644;SDS011;21764;52.042;6.830;2023-08-21T14:44:56;9.25;;;2.60;;
35644;SDS011;21764;52.042;6.830;2023-08-21T14:49:57;10.95;;;2.10;;
35644;SDS011;21764;52.042;6.830;2023-08-21T14:54:57;9.10;;;2.35;;
35644;SDS011;21764;52.042;6.830;2023-08-21T14:59:58;9.20;;;2.47;;
35644;SDS011;21764;52.042;6.830;2023-08-21T15:05:01;11.55;;;2.22;;
35644;SDS011;21764;52.042;6.830;2023-08-21T15:10:05;10.30;;;2.28;;
35644;SDS011;21764;52.042;6.830;2023-08-21T15:15:06;11.30;;;2.20;;
35644;SDS011;21764;52.042;6.830;2023-08-21T15:20:07;8.90;;;2.85;;
35644;SDS011;21764;52.042;6.830;2023-08-21T15:25:09;6.70;;;2.35;;
35644;SDS011;21764;52.042;6.830;2023-08-21T15:30:11;10.82;;;2.60;;
35644;SDS011;21764;52.042;6.830;2023-08-21T15:35:12;6.88;;;2.00;;
35644;SDS011;21764;52.042;6.830;2023-08-21T15:40:12;7.57;;;2.33;;
35644;SDS011;21764;52.042;6.830;2023-08-21T15:45:13;4.05;;;1.90;;
35644;SDS011;21764;52.042;6.830;2023-08-21T15:50:16;7.45;;;2.33;;
35644;SDS011;21764;52.042;6.830;2023-08-21T15:55:19;6.47;;;2.30;;
35644;SDS011;21764;52.042;6.830;2023-08-21T16:00:20;8.07;;;2.47;;
35644;SDS011;21764;52.042;6.830;2023-08-21T16:05:23;6.78;;;2.38;;
35644;SDS011;21764;52.042;6.830;2023-08-21T16:10:24;9.38;;;2.42;;
35644;SDS011;21764;52.042;6.830;2023-08-21T16:15:25;9.23;;;2.20;;
35644;SDS011;21764;52.042;6.830;2023-08-21T16:20:25;9.23;;;2.13;;
35644;SDS011;21764;52.042;6.830;2023-08-21T16:25:28;7.63;;;2.55;;
35644;SDS011;21764;52.042;6.830;2023-08-21T16:30:28;9.18;;;2.33;;
35644;SDS011;21764;52.042;6.830;2023-08-21T16:35:29;7.20;;;2.42;;
35644;SDS011;21764;52.042;6.830;2023-08-21T16:40:31;12.45;;;2.72;;
35644;SDS011;21764;52.042;6.830;2023-08-21T16:45:32;9.13;;;2.20;;
35644;SDS011;21764;52.042;6.830;2023-08-21T16:50:33;13.35;;;2.60;;
35644;SDS011;21764;52.042;6.830;2023-08-21T16:55:33;10.63;;;2.70;;
35644;SDS011;21764;52.042;6.830;2023-08-21T17:00:34;10.32;;;2.90;;
35644;SDS011;21764;52.042;6.830;2023-08-21T17:05:35;8.35;;;2.63;;
35644;SDS011;21764;52.042;6.830;2023-08-21T17:10:37;8.80;;;2.63;;
35644;SDS011;21764;52.042;6.830;2023-08-21T17:15:38;7.43;;;2.88;;
35644;SDS011;21764;52.042;6.830;2023-08-21T17:20:39;8.77;;;2.33;;
35644;SDS011;21764;52.042;6.830;2023-08-21T17:25:40;10.02;;;2.92;;
35644;SDS011;21764;52.042;6.830;2023-08-21T17:30:40;12.27;;;2.40;;
35644;SDS011;21764;52.042;6.830;2023-08-21T17:35:41;7.70;;;2.15;;
35644;SDS011;21764;52.042;6.830;2023-08-21T17:40:42;8.88;;;2.85;;
35644;SDS011;21764;52.042;6.830;2023-08-21T17:45:44;6.25;;;2.20;;
35644;SDS011;21764;52.042;6.830;2023-08-21T17:50:46;6.60;;;2.80;;
35644;SDS011;21764;52.042;6.830;2023-08-21T17:55:46;8.93;;;2.47;;
35644;SDS011;21764;52.042;6.830;2023-08-21T18:00:47;9.38;;;2.88;;
35644;SDS011;21764;52.042;6.830;2023-08-21T18:05:48;11.13;;;2.72;;
35644;SDS011;21764;52.042;6.830;2023-08-21T18:10:48;5.78;;;2.53;;
35644;SDS011;21764;52.042;6.830;2023-08-21T18:15:49;6.85;;;2.58;;
35644;SDS011;21764;52.042;6.830;2023-08-21T18:20:51;13.45;;;3.95;;
35644;SDS011;21764;52.042;6.830;2023-08-21T18:25:53;12.02;;;4.25;;
35644;SDS011;21764;52.042;6.830;2023-08-21T18:30:56;11.73;;;3.80;;
35644;SDS011;21764;52.042;6.830;2023-08-21T18:36:00;13.20;;;4.22;;
35644;SDS011;21764;52.042;6.830;2023-08-21T18:41:00;11.50;;;4.05;;
35644;SDS011;21764;52.042;6.830;2023-08-21T18:46:01;10.75;;;4.43;;
35644;SDS011;21764;52.042;6.830;2023-08-21T18:51:02;10.90;;;4.10;;
35644;SDS011;21764;52.042;6.830;2023-08-21T18:56:03;14.35;;;4.90;;
35644;SDS011;21764;52.042;6.830;2023-08-21T19:01:05;13.52;;;5.57;;
35644;SDS011;21764;52.042;6.830;2023-08-21T19:06:06;14.85;;;4.88;;
35644;SDS011;21764;52.042;6.830;2023-08-21T19:11:07;11.45;;;4.40;;
35644;SDS011;21764;52.042;6.830;2023-08-21T19:16:08;8.60;;;3.88;;
35644;SDS011;21764;52.042;6.830;2023-08-21T19:21:09;14.05;;;4.60;;
35644;SDS011;21764;52.042;6.830;2023-08-21T19:26:09;10.35;;;4.22;;
35644;SDS011;21764;52.042;6.830;2023-08-21T19:31:10;15.05;;;4.55;;
35644;SDS011;21764;52.042;6.830;2023-08-21T19:36:12;13.25;;;4.40;;
35644;SDS011;21764;52.042;6.830;2023-08-21T19:41:13;14.70;;;5.15;;
35644;SDS011;21764;52.042;6.830;2023-08-21T19:46:13;11.27;;;4.88;;
35644;SDS011;21764;52.042;6.830;2023-08-21T19:51:14;15.93;;;4.90;;
35644;SDS011;21764;52.042;6.830;2023-08-21T19:56:15;13.10;;;4.90;;
35644;SDS011;21764;52.042;6.830;2023-08-21T20:01:16;13.93;;;5.00;;
35644;SDS011;21764;52.042;6.830;2023-08-21T20:06:16;14.02;;;5.68;;
35644;SDS011;21764;52.042;6.830;2023-08-21T20:11:17;10.20;;;5.72;;
35644;SDS011;21764;52.042;6.830;2023-08-21T20:16:18;14.90;;;5.72;;
35644;SDS011;21764;52.042;6.830;2023-08-21T20:21:18;19.75;;;6.07;;
35644;SDS011;21764;52.042;6.830;2023-08-21T20:26:21;19.52;;;6.28;;
35644;SDS011;21764;52.042;6.830;2023-08-21T20:31:24;12.18;;;5.72;;
35644;SDS011;21764;52.042;6.830;2023-08-21T20:41:29;11.77;;;5.97;;
35644;SDS011;21764;52.042;6.830;2023-08-21T20:46:30;12.98;;;5.60;;
35644;SDS011;21764;52.042;6.830;2023-08-21T20:51:30;19.05;;;5.80;;
35644;SDS011;21764;52.042;6.830;2023-08-21T20:56:31;12.38;;;6.40;;
35644;SDS011;21764;52.042;6.830;2023-08-21T21:01:32;14.15;;;6.35;;
35644;SDS011;21764;52.042;6.830;2023-08-21T21:06:33;17.02;;;7.45;;
35644;SDS011;21764;52.042;6.830;2023-08-21T21:11:33;16.08;;;7.20;;
35644;SDS011;21764;52.042;6.830;2023-08-21T21:16:34;12.75;;;7.07;;
35644;SDS011;21764;52.042;6.830;2023-08-21T21:21:35;15.13;;;7.38;;
35644;SDS011;21764;52.042;6.830;2023-08-21T21:26:37;14.70;;;7.35;;
35644;SDS011;21764;52.042;6.830;2023-08-21T21:31:39;13.27;;;8.15;;
35644;SDS011;21764;52.042;6.830;2023-08-21T21:36:40;16.52;;;7.22;;
35644;SDS011;21764;52.042;6.830;2023-08-21T21:41:42;14.32;;;6.60;;
35644;SDS011;21764;52.042;6.830;2023-08-21T21:46:43;12.63;;;7.40;;
35644;SDS011;21764;52.042;6.830;2023-08-21T21:51:43;18.60;;;7.82;;
35644;SDS011;21764;52.042;6.830;2023-08-21T21:56:44;20.63;;;8.30;;
35644;SDS011;21764;52.042;6.830;2023-08-21T22:01:45;13.98;;;7.63;;
35644;SDS011;21764;52.042;6.830;2023-08-21T22:06:46;13.80;;;7.35;;
35644;SDS011;21764;52.042;6.830;2023-08-21T22:11:46;10.63;;;6.97;;
35644;SDS011;21764;52.042;6.830;2023-08-21T22:16:47;15.10;;;7.10;;
35644;SDS011;21764;52.042;6.830;2023-08-21T22:21:48;17.23;;;7.50;;
35644;SDS011;21764;52.042;6.830;2023-08-21T22:26:49;9.85;;;7.38;;
35644;SDS011;21764;52.042;6.830;2023-08-21T22:31:49;12.77;;;7.30;;
35644;SDS011;21764;52.042;6.830;2023-08-21T22:36:50;12.85;;;7.97;;
35644;SDS011;21764;52.042;6.830;2023-08-21T22:41:52;12.38;;;6.90;;
35644;SDS011;21764;52.042;6.830;2023-08-21T22:46:52;12.02;;;7.15;;
35644;SDS011;21764;52.042;6.830;2023-08-21T22:51:53;15.38;;;7.63;;
35644;SDS011;21764;52.042;6.830;2023-08-21T22:56:54;15.27;;;8.13;;
35644;SDS011;21764;52.042;6.830;2023-08-21T23:01:54;15.85;;;8.82;;
35644;SDS011;21764;52.042;6.830;2023-08-21T23:06:55;10.73;;;8.32;;
35644;SDS011;21764;52.042;6.830;2023-08-21T23:11:56;12.95;;;9.10;;
35644;SDS011;21764;52.042;6.830;2023-08-21T23:16:56;14.85;;;8.15;;
35644;SDS011;21764;52.042;6.830;2023-08-21T23:21:57;12.38;;;8.40;;
35644;SDS011;21764;52.042;6.830;2023-08-21T23:26:58;13.95;;;8.57;;
35644;SDS011;21764;52.042;6.830;2023-08-21T23:32:00;15.98;;;9.13;;
35644;SDS011;21764;52.042;6.830;2023-08-21T23:37:00;18.13;;;9.63;;
35644;SDS011;21764;52.042;6.830;2023-08-21T23:42:01;13.35;;;9.88;;
35644;SDS011;21764;52.042;6.830;2023-08-21T23:47:03;18.88;;;9.80;;
35644;SDS011;21764;52.042;6.830;2023-08-21T23:52:03;15.35;;;9.73;;
35644;SDS011;21764;52.042;6.830;2023-08-21T23:57:05;13.57;;;10.05;;
